createdAt,value
2019-04-05T00:01:10.970Z,109.03
2019-04-05T00:03:42.268Z,102.92
2019-04-05T00:06:13.480Z,103.58
2019-04-05T00:08:44.848Z,97.85
2019-04-05T00:11:16.012Z,91.15
2019-04-05T00:13:47.547Z,98.30
2019-04-05T00:16:18.770Z,97.33
2019-04-05T00:18:50.310Z,100.02
2019-04-05T00:21:22.032Z,92.90
2019-04-05T00:23:53.125Z,100.42
2019-04-05T00:26:24.378Z,98.15
2019-04-05T00:28:55.991Z,94.07
2019-04-05T00:31:28.431Z,89.70
2019-04-05T00:33:59.522Z,91.97
2019-04-05T00:36:30.987Z,95.22
2019-04-05T00:39:02.427Z,105.63
2019-04-05T00:41:35.173Z,106.72
2019-04-05T00:44:06.525Z,107.10
2019-04-05T00:46:37.724Z,121.47
2019-04-05T00:49:08.993Z,109.75
2019-04-05T00:51:40.453Z,109.78
2019-04-05T00:54:12.929Z,108.45
2019-04-05T00:56:44.283Z,101.45
2019-04-05T00:59:15.729Z,101.27
2019-04-05T01:01:46.927Z,113.00
2019-04-05T01:04:18.472Z,108.42
2019-04-05T01:06:49.683Z,107.65
2019-04-05T01:09:21.039Z,125.00
2019-04-05T01:11:52.303Z,98.58
2019-04-05T01:14:23.624Z,112.45
2019-04-05T01:16:54.771Z,106.30
2019-04-05T01:19:28.858Z,100.10
2019-04-05T01:22:00.360Z,96.08
2019-04-05T01:24:31.614Z,97.25
2019-04-05T01:27:03.006Z,96.92
2019-04-05T01:29:34.387Z,97.22
2019-04-05T01:32:05.749Z,104.03
2019-04-05T01:34:37.083Z,95.42
2019-04-05T01:37:08.261Z,99.40
2019-04-05T01:39:39.484Z,100.00
2019-04-05T01:42:10.994Z,100.45
2019-04-05T01:44:42.295Z,101.07
2019-04-05T01:47:13.517Z,108.52
2019-04-05T01:49:44.798Z,94.45
2019-04-05T01:52:15.918Z,99.62
2019-04-05T01:54:48.415Z,97.12
2019-04-05T01:57:19.827Z,110.85
2019-04-05T01:59:51.313Z,103.42
2019-04-05T02:02:22.567Z,99.92
2019-04-05T02:04:54.074Z,110.12
2019-04-05T02:07:25.444Z,119.53
2019-04-05T02:09:56.836Z,111.22
2019-04-05T02:12:29.045Z,111.08
2019-04-05T02:15:00.345Z,111.97
2019-04-05T02:17:31.661Z,106.22
2019-04-05T02:20:02.915Z,106.07
2019-04-05T02:22:34.586Z,101.92
2019-04-05T02:27:35.725Z,114.95
2019-04-05T02:30:06.934Z,109.97
2019-04-05T02:32:38.318Z,125.87
2019-04-05T02:35:09.691Z,116.20
2019-04-05T02:37:41.201Z,102.47
2019-04-05T02:40:14.451Z,99.60
2019-04-05T02:42:45.673Z,89.72
2019-04-05T02:45:18.553Z,86.85
2019-04-05T02:47:52.487Z,88.62
2019-04-05T02:50:25.257Z,85.17
2019-04-05T02:52:57.425Z,87.30
2019-04-05T02:55:29.790Z,83.70
2019-04-05T02:58:01.857Z,83.70
2019-04-05T03:00:34.028Z,83.67
2019-04-05T03:03:05.260Z,105.87
2019-04-05T03:05:37.263Z,109.50
2019-04-05T03:08:08.695Z,109.17
2019-04-05T03:10:46.931Z,117.30
2019-04-05T03:13:18.424Z,104.72
2019-04-05T03:15:49.810Z,113.37
2019-04-05T03:18:21.048Z,116.75
2019-04-05T03:20:52.388Z,136.55
2019-04-05T03:23:24.062Z,110.08
2019-04-05T03:25:57.500Z,133.52
2019-04-05T03:28:29.117Z,137.52
2019-04-05T03:31:04.240Z,141.43
2019-04-05T03:33:36.837Z,131.60
2019-04-05T03:36:11.743Z,124.12
2019-04-05T03:38:44.339Z,115.88
2019-04-05T03:41:15.588Z,127.65
2019-04-05T03:43:48.185Z,138.95
2019-04-05T03:46:19.480Z,107.45
2019-04-05T03:48:54.042Z,116.22
2019-04-05T03:51:26.019Z,121.37
2019-04-05T03:53:59.951Z,117.97
2019-04-05T03:56:33.325Z,137.80
2019-04-05T03:59:05.280Z,112.50
2019-04-05T04:01:36.560Z,122.70
2019-04-05T04:04:09.766Z,133.37
2019-04-05T04:09:14.303Z,139.40
2019-04-05T04:11:45.714Z,135.45
2019-04-05T04:14:17.322Z,123.92
2019-04-05T04:16:48.481Z,131.25
2019-04-05T04:19:19.860Z,110.75
2019-04-05T04:22:11.135Z,121.33
2019-04-05T04:24:42.599Z,113.12
2019-04-05T04:27:18.839Z,128.53
2019-04-05T04:29:50.159Z,130.35
2019-04-05T04:32:21.516Z,132.32
2019-04-05T04:34:54.527Z,140.80
2019-04-05T04:37:28.127Z,123.97
2019-04-05T04:39:59.442Z,125.58
2019-04-05T04:42:31.912Z,126.45
2019-04-05T04:45:11.872Z,123.10
2019-04-05T04:50:08.575Z,111.12
2019-04-05T04:52:41.551Z,126.37
2019-04-05T04:55:14.552Z,113.95
2019-04-05T04:57:47.561Z,127.45
2019-04-05T05:00:18.922Z,116.90
2019-04-05T05:02:50.218Z,116.15
2019-04-05T05:05:22.101Z,129.10
2019-04-05T05:07:55.348Z,138.25
2019-04-05T05:10:27.645Z,108.57
2019-04-05T05:13:01.839Z,102.32
2019-04-05T05:15:33.235Z,95.72
2019-04-05T05:18:07.032Z,92.25
2019-04-05T05:20:38.503Z,102.53
2019-04-05T05:23:11.582Z,99.10
2019-04-05T05:25:43.094Z,104.87
2019-04-05T05:28:14.579Z,113.88
2019-04-05T05:30:46.085Z,111.52
2019-04-05T05:33:18.522Z,98.45
2019-04-05T05:35:49.840Z,105.12
2019-04-05T05:38:21.023Z,108.42
2019-04-05T05:40:55.431Z,111.80
2019-04-05T05:43:27.613Z,112.83
2019-04-05T05:46:00.178Z,109.05
2019-04-05T05:48:32.506Z,110.65
2019-04-05T05:51:03.874Z,104.45
2019-04-05T05:53:35.422Z,109.85
2019-04-05T05:56:06.651Z,108.55
2019-04-05T05:58:39.260Z,102.42
2019-04-05T06:01:10.581Z,109.90
2019-04-05T06:03:42.098Z,114.22
2019-04-05T06:06:14.007Z,110.63
2019-04-05T06:08:45.139Z,94.42
2019-04-05T06:11:17.564Z,90.80
2019-04-05T06:13:49.174Z,84.25
2019-04-05T06:16:21.198Z,88.75
2019-04-05T06:18:52.692Z,86.22
2019-04-05T06:21:25.187Z,101.05
2019-04-05T06:23:56.589Z,100.82
2019-04-05T06:26:27.956Z,102.02
2019-04-05T06:28:59.306Z,89.47
2019-04-05T06:31:30.833Z,91.92
2019-04-05T06:34:03.206Z,74.37
2019-04-05T06:36:35.802Z,71.22
2019-04-05T06:39:08.236Z,54.55
2019-04-05T06:41:39.470Z,50.17
2019-04-05T06:44:11.097Z,45.83
2019-04-05T06:49:17.276Z,46.83
2019-04-05T06:51:50.364Z,51.02
2019-04-05T06:54:21.752Z,51.02
2019-04-05T06:56:54.908Z,52.40
2019-04-05T06:59:37.204Z,65.08
2019-04-05T07:02:09.214Z,73.15
2019-04-05T07:04:41.441Z,71.02
2019-04-05T07:07:12.606Z,68.10
2019-04-05T07:09:44.167Z,63.05
2019-04-05T07:12:15.519Z,76.33
2019-04-05T07:14:51.457Z,65.42
2019-04-05T07:17:26.500Z,64.65
2019-04-05T07:19:57.925Z,60.58
2019-04-05T07:22:38.555Z,64.53
2019-04-05T07:25:02.953Z,62.65
2019-04-05T07:27:34.861Z,66.72
2019-04-05T07:30:08.241Z,69.40
2019-04-05T07:32:41.746Z,50.40
2019-04-05T07:37:46.523Z,31.97
2019-04-05T07:40:19.134Z,41.48
2019-04-05T07:42:50.589Z,37.45
2019-04-05T07:45:23.099Z,33.02
2019-04-05T07:47:54.872Z,33.18
2019-04-05T07:50:26.834Z,51.05
2019-04-05T07:52:58.140Z,34.08
2019-04-05T07:55:29.893Z,50.45
2019-04-05T07:58:01.703Z,34.95
2019-04-05T08:00:46.566Z,33.25
2019-04-05T08:05:48.300Z,26.57
2019-04-05T08:08:35.723Z,22.20
2019-04-05T08:11:07.138Z,12.78
2019-04-05T08:13:41.545Z,20.85
2019-04-05T08:16:13.318Z,16.87
2019-04-05T08:18:58.079Z,13.50
2019-04-05T08:21:29.222Z,12.43
2019-04-05T08:24:00.841Z,15.15
2019-04-05T08:26:35.533Z,11.88
2019-04-05T08:29:07.253Z,14.13
2019-04-05T08:31:40.535Z,14.38
2019-04-05T08:34:11.849Z,45.43
2019-04-05T08:36:43.052Z,15.05
2019-04-05T08:39:16.223Z,18.15
2019-04-05T08:41:48.917Z,12.60
2019-04-05T08:44:22.061Z,14.70
2019-04-05T08:46:54.553Z,14.23
2019-04-05T08:49:25.883Z,19.80
2019-04-05T08:51:57.293Z,21.90
2019-04-05T08:54:32.772Z,26.25
2019-04-05T08:57:35.202Z,24.95
2019-04-05T09:00:10.346Z,24.12
2019-04-05T09:02:42.790Z,26.02
2019-04-05T09:05:19.804Z,24.20
2019-04-05T09:07:51.193Z,18.57
2019-04-05T09:10:22.553Z,21.27
2019-04-05T09:12:53.745Z,23.02
2019-04-05T09:15:26.054Z,20.17
2019-04-05T09:17:57.481Z,21.60
2019-04-05T09:20:28.689Z,22.32
2019-04-05T09:22:59.830Z,21.42
2019-04-05T09:25:31.008Z,22.50
2019-04-05T09:28:02.850Z,29.98
2019-04-05T09:30:33.993Z,16.90
2019-04-05T09:33:05.262Z,19.12
2019-04-05T09:35:36.404Z,16.57
2019-04-05T09:38:10.685Z,18.07
2019-04-05T09:40:42.749Z,20.57
2019-04-05T09:43:15.895Z,16.62
2019-04-05T09:45:49.897Z,17.23
2019-04-05T09:48:21.581Z,14.00
2019-04-05T09:50:52.894Z,14.60
2019-04-05T09:53:26.460Z,30.35
2019-04-05T09:55:57.956Z,13.93
2019-04-05T09:58:31.487Z,22.60
2019-04-05T10:01:03.607Z,19.07
2019-04-05T10:03:36.629Z,21.45
2019-04-05T10:06:08.994Z,16.62
2019-04-05T10:08:40.590Z,18.07
2019-04-05T10:11:11.903Z,13.62
2019-04-05T10:13:43.305Z,11.93
2019-04-05T10:16:15.680Z,13.95
2019-04-05T10:18:46.948Z,15.65
2019-04-05T10:21:20.620Z,15.20
2019-04-05T10:23:51.858Z,16.07
2019-04-05T10:26:25.295Z,21.52
2019-04-05T10:28:56.626Z,17.63
2019-04-05T10:31:27.903Z,16.82
2019-04-05T10:33:59.220Z,15.90
2019-04-05T10:36:31.202Z,16.75
2019-04-05T10:39:08.583Z,14.78
2019-04-05T10:41:43.434Z,17.62
2019-04-05T10:44:16.227Z,18.50
2019-04-05T10:46:48.595Z,16.75
2019-04-05T10:49:19.826Z,18.62
2019-04-05T10:51:58.524Z,14.75
2019-04-05T10:54:31.325Z,21.82
2019-04-05T10:57:04.354Z,19.17
2019-04-05T10:59:38.524Z,27.95
2019-04-05T11:02:10.343Z,19.55
2019-04-05T11:04:42.672Z,15.58
2019-04-05T11:07:14.398Z,17.05
2019-04-05T11:09:46.328Z,11.85
2019-04-05T11:12:17.830Z,15.03
2019-04-05T11:14:49.706Z,12.95
2019-04-05T11:17:21.354Z,17.55
2019-04-05T11:19:53.724Z,13.50
2019-04-05T11:22:25.256Z,13.10
2019-04-05T11:24:57.200Z,19.95
2019-04-05T11:27:28.468Z,15.90
2019-04-05T11:29:59.862Z,13.70
2019-04-05T11:32:31.098Z,13.55
2019-04-05T11:35:02.519Z,13.70
2019-04-05T11:37:34.697Z,16.37
2019-04-05T11:40:08.387Z,16.20
2019-04-05T11:42:41.051Z,20.68
2019-04-05T11:45:12.716Z,15.10
2019-04-05T11:47:45.871Z,105.35
2019-04-05T11:50:17.506Z,19.95
2019-04-05T11:52:49.704Z,20.30
2019-04-05T11:55:21.908Z,15.72
2019-04-05T11:57:54.863Z,13.75
2019-04-05T12:00:43.658Z,17.05
2019-04-05T12:03:25.827Z,18.23
2019-04-05T12:05:58.507Z,15.53
2019-04-05T12:08:30.994Z,17.23
2019-04-05T12:11:02.927Z,15.58
2019-04-05T12:13:34.402Z,18.80
2019-04-05T12:16:10.351Z,17.20
2019-04-05T12:18:42.974Z,15.50
2019-04-05T12:21:20.641Z,14.28
2019-04-05T12:23:51.647Z,14.38
2019-04-05T12:26:23.212Z,13.50
2019-04-05T12:28:54.686Z,15.93
2019-04-05T12:31:26.859Z,16.23
2019-04-05T12:33:58.304Z,14.68
2019-04-05T12:36:32.294Z,17.00
2019-04-05T12:39:08.159Z,17.07
2019-04-05T12:41:41.858Z,18.37
2019-04-05T12:44:15.495Z,15.18
2019-04-05T12:46:46.895Z,13.75
2019-04-05T12:49:18.147Z,14.75
2019-04-05T12:51:50.238Z,15.32
2019-04-05T12:54:21.449Z,17.98
2019-04-05T12:56:54.282Z,20.80
2019-04-05T12:59:26.275Z,19.27
2019-04-05T13:01:59.722Z,20.10
2019-04-05T13:04:31.055Z,20.17
2019-04-05T13:07:03.334Z,26.82
2019-04-05T13:09:37.266Z,19.67
2019-04-05T13:12:08.707Z,17.62
2019-04-05T13:14:39.947Z,18.90
2019-04-05T13:17:11.094Z,16.65
2019-04-05T13:19:42.980Z,20.25
2019-04-05T13:22:14.197Z,15.80
2019-04-05T13:24:47.492Z,17.10
2019-04-05T13:27:18.847Z,16.27
2019-04-05T13:29:53.153Z,17.77
2019-04-05T13:32:25.925Z,19.52
2019-04-05T13:35:01.273Z,18.70
2019-04-05T13:37:34.422Z,23.25
2019-04-05T13:40:14.170Z,22.13
2019-04-05T13:43:08.107Z,19.75
2019-04-05T13:45:41.747Z,22.02
2019-04-05T13:48:13.235Z,18.62
2019-04-05T13:50:44.558Z,22.65
2019-04-05T13:53:15.689Z,23.42
2019-04-05T13:55:47.903Z,21.75
2019-04-05T13:58:19.242Z,26.35
2019-04-05T14:00:53.329Z,20.23
2019-04-05T14:03:25.803Z,23.20
2019-04-05T14:05:58.456Z,19.95
2019-04-05T14:08:32.842Z,31.27
2019-04-05T14:11:05.472Z,25.72
2019-04-05T14:13:42.801Z,30.25
2019-04-05T14:16:16.094Z,25.60
2019-04-05T14:18:49.806Z,28.62
2019-04-05T14:21:22.229Z,30.23
2019-04-05T14:23:55.288Z,28.92
2019-04-05T14:26:27.381Z,27.75
2019-04-05T14:29:03.409Z,38.73
2019-04-05T14:31:40.296Z,28.17
2019-04-05T14:34:15.839Z,33.58
2019-04-05T14:36:52.448Z,30.68
2019-04-05T14:39:26.639Z,29.52
2019-04-05T14:42:09.067Z,106.55
2019-04-05T14:44:32.151Z,29.17
2019-04-05T14:47:04.547Z,25.60
2019-04-05T14:49:36.633Z,22.98
2019-04-05T14:52:07.942Z,28.42
2019-04-05T14:54:39.728Z,25.12
2019-04-05T14:57:11.461Z,24.02
2019-04-05T14:59:47.957Z,24.57
2019-04-05T15:02:21.090Z,21.85
2019-04-05T15:05:13.512Z,23.65
2019-04-05T15:07:51.094Z,28.23
2019-04-05T15:10:25.295Z,28.95
2019-04-05T15:13:01.752Z,25.08
2019-04-05T15:15:33.962Z,25.05
2019-04-05T15:18:07.881Z,25.85
2019-04-05T15:20:39.332Z,22.87
2019-04-05T15:23:14.065Z,26.12
2019-04-05T15:25:49.430Z,29.12
2019-04-05T15:28:20.196Z,29.85
2019-04-05T15:30:55.685Z,24.75
2019-04-05T15:33:27.443Z,26.27
2019-04-05T15:36:00.175Z,24.15
2019-04-05T15:38:31.681Z,26.25
2019-04-05T15:41:07.121Z,29.02
2019-04-05T15:43:41.067Z,24.82
2019-04-05T15:46:13.045Z,24.80
2019-04-05T15:48:44.611Z,26.52
2019-04-05T15:51:16.409Z,25.88
2019-04-05T15:53:47.910Z,26.77
2019-04-05T15:58:52.717Z,22.58
2019-04-05T16:01:23.880Z,25.02
2019-04-05T16:03:55.047Z,21.90
2019-04-05T16:06:26.296Z,21.62
2019-04-05T16:08:57.542Z,22.15
2019-04-05T16:11:31.760Z,19.37
2019-04-05T16:14:05.136Z,23.67
2019-04-05T16:16:36.662Z,21.48
2019-04-05T16:19:08.572Z,24.85
2019-04-05T16:21:39.940Z,28.07
2019-04-05T16:24:12.168Z,23.35
2019-04-05T16:26:43.385Z,28.67
2019-04-05T16:29:16.998Z,30.17
2019-04-05T16:31:49.656Z,30.45
2019-04-05T16:34:21.661Z,26.77
2019-04-05T16:36:53.175Z,36.65
2019-04-05T16:39:24.418Z,29.32
2019-04-05T16:41:59.143Z,35.63
2019-04-05T16:44:30.404Z,40.35
2019-04-05T16:47:01.639Z,40.58
2019-04-05T16:49:32.991Z,39.30
2019-04-05T16:52:04.273Z,49.20
2019-04-05T16:54:36.272Z,55.10
2019-04-05T16:57:08.964Z,43.02
2019-04-05T16:59:40.399Z,41.08
2019-04-05T17:02:11.612Z,38.48
2019-04-05T17:04:43.427Z,34.43
2019-04-05T17:07:17.013Z,41.68
2019-04-05T17:09:48.191Z,35.17
2019-04-05T17:12:21.244Z,46.92
2019-04-05T17:14:53.867Z,35.68
2019-04-05T17:17:37.154Z,37.28
2019-04-05T17:20:08.662Z,48.52
2019-04-05T17:22:40.214Z,52.33
2019-04-05T17:25:15.921Z,40.15
2019-04-05T17:27:49.109Z,43.13
2019-04-05T17:30:21.058Z,44.33
2019-04-05T17:32:55.391Z,52.48
2019-04-05T17:35:27.158Z,46.05
2019-04-05T17:38:03.327Z,74.25
2019-04-05T17:40:35.038Z,96.65
2019-04-05T17:43:06.432Z,84.85
2019-04-05T17:45:38.295Z,87.15
2019-04-05T17:48:09.541Z,81.87
2019-04-05T17:50:40.732Z,80.65
2019-04-05T17:53:13.376Z,90.35
2019-04-05T17:55:44.968Z,82.80
2019-04-05T17:58:19.951Z,81.67
2019-04-05T18:00:51.554Z,79.70
2019-04-05T18:03:23.060Z,73.83
2019-04-05T18:05:54.495Z,91.53
2019-04-05T18:08:26.202Z,92.35
2019-04-05T18:10:58.638Z,86.97
2019-04-05T18:13:30.832Z,89.97
2019-04-05T18:16:01.991Z,101.20
2019-04-05T18:18:34.139Z,116.80
2019-04-05T18:21:05.742Z,122.40
2019-04-05T18:23:36.957Z,120.50
2019-04-05T18:26:09.931Z,122.07
2019-04-05T18:28:42.079Z,125.22
2019-04-05T18:31:14.239Z,118.13
2019-04-05T18:33:48.786Z,113.10
2019-04-05T18:36:20.632Z,109.50
2019-04-05T18:38:52.241Z,98.00
2019-04-05T18:41:23.742Z,110.22
2019-04-05T18:43:59.084Z,99.87
2019-04-05T18:46:31.472Z,98.87
2019-04-05T18:49:02.782Z,104.47
2019-04-05T18:51:34.249Z,102.90
2019-04-05T18:54:07.153Z,103.17
2019-04-05T18:56:39.832Z,110.03
2019-04-05T18:59:11.841Z,157.25
2019-04-05T19:01:43.282Z,165.52
2019-04-05T19:04:15.747Z,146.28
2019-04-05T19:06:47.107Z,161.85
2019-04-05T19:09:19.265Z,170.47
2019-04-05T19:11:50.817Z,155.30
2019-04-05T19:14:22.993Z,125.65
2019-04-05T19:16:59.243Z,106.52
2019-04-05T19:19:32.447Z,100.22
2019-04-05T19:22:05.888Z,86.10
2019-04-05T19:24:38.572Z,81.12
2019-04-05T19:27:10.391Z,78.50
2019-04-05T19:29:42.150Z,70.87
2019-04-05T19:50:06.978Z,77.95
2019-04-05T19:52:38.230Z,78.17
2019-04-05T19:55:09.566Z,83.80
2019-04-05T19:57:41.144Z,85.92
2019-04-05T20:00:14.068Z,91.00
2019-04-05T20:02:47.378Z,99.42
2019-04-05T20:05:20.167Z,130.72
2019-04-05T20:07:52.027Z,128.30
2019-04-05T20:10:26.903Z,99.37
2019-04-05T20:12:59.458Z,110.22
2019-04-05T20:15:33.836Z,100.53
2019-04-05T20:18:07.950Z,95.95
2019-04-05T20:20:40.528Z,109.05
2019-04-05T20:23:12.007Z,94.10
2019-04-05T20:25:43.290Z,97.97
2019-04-05T20:28:16.822Z,103.83
2019-04-05T20:30:48.209Z,110.12
2019-04-05T20:33:19.720Z,104.05
2019-04-05T20:35:51.319Z,99.62
2019-04-05T20:38:22.615Z,97.92
2019-04-05T20:40:54.247Z,93.60
2019-04-05T20:43:25.764Z,96.08
2019-04-05T20:45:57.030Z,95.60
2019-04-05T20:48:28.570Z,93.55
2019-04-05T20:50:59.873Z,97.82
2019-04-05T20:53:31.266Z,95.25
2019-04-05T20:56:02.419Z,92.02
2019-04-05T20:58:33.981Z,104.10
2019-04-05T21:01:06.441Z,101.55
2019-04-05T21:03:37.787Z,104.50
2019-04-05T21:06:09.265Z,107.92
2019-04-05T21:08:40.497Z,105.72
2019-04-05T21:11:11.725Z,109.72
2019-04-05T21:13:44.219Z,109.17
2019-04-05T21:16:17.824Z,110.10
2019-04-05T21:18:49.044Z,118.02
2019-04-05T21:21:20.197Z,122.17
2019-04-05T21:23:51.475Z,110.83
2019-04-05T21:26:22.709Z,111.50
2019-04-05T21:29:08.189Z,112.77
2019-04-05T21:31:39.601Z,119.40
2019-04-05T21:34:11.198Z,109.27
2019-04-05T21:36:42.750Z,112.92
2019-04-05T21:39:13.992Z,131.50
2019-04-05T21:41:45.131Z,121.95
2019-04-05T21:44:16.486Z,116.65
2019-04-05T21:46:48.176Z,128.27
2019-04-05T21:49:19.724Z,111.08
2019-04-05T21:51:51.386Z,121.10
2019-04-05T21:54:22.907Z,107.07
2019-04-05T21:56:54.666Z,115.88
2019-04-05T21:59:26.382Z,110.35
2019-04-05T22:01:58.082Z,113.88
2019-04-05T22:04:29.956Z,128.57
2019-04-05T22:07:01.632Z,117.93
2019-04-05T22:09:33.346Z,101.05
2019-04-05T22:12:05.339Z,114.65
2019-04-05T22:14:36.757Z,127.92
2019-04-05T22:17:09.351Z,116.10
2019-04-05T22:19:41.109Z,114.08
2019-04-05T22:22:12.790Z,110.60
2019-04-05T22:24:44.628Z,126.50
2019-04-05T22:27:16.126Z,118.60
2019-04-05T22:29:47.824Z,111.68
2019-04-05T22:32:19.415Z,110.92
2019-04-05T22:34:51.163Z,104.75
2019-04-05T22:37:22.515Z,103.05
2019-04-05T22:39:53.990Z,96.25
2019-04-05T22:42:25.792Z,111.92
2019-04-05T22:44:57.687Z,113.55
2019-04-05T22:47:29.070Z,109.80
2019-04-05T22:50:00.615Z,108.20
2019-04-05T22:52:32.350Z,118.53
2019-04-05T22:55:10.909Z,108.72
2019-04-05T23:00:08.985Z,105.35
2019-04-05T23:02:42.039Z,106.85
2019-04-05T23:05:13.544Z,110.45
2019-04-05T23:07:45.044Z,104.50
2019-04-05T23:10:16.705Z,110.12
2019-04-05T23:12:48.160Z,112.60
2019-04-05T23:15:20.767Z,100.67
2019-04-05T23:17:53.040Z,104.70
2019-04-05T23:20:24.409Z,106.58
2019-04-05T23:22:55.913Z,101.62
2019-04-05T23:25:27.283Z,100.65
2019-04-05T23:27:58.563Z,93.50
2019-04-05T23:30:33.062Z,92.70
2019-04-05T23:33:04.580Z,96.05
2019-04-05T23:35:36.134Z,91.78
2019-04-05T23:38:07.999Z,96.28
2019-04-05T23:40:39.587Z,86.95
2019-04-05T23:43:11.390Z,90.38
2019-04-05T23:45:42.874Z,82.55
2019-04-05T23:48:14.727Z,92.22
2019-04-05T23:50:46.373Z,81.53
2019-04-05T23:53:17.979Z,95.20
2019-04-05T23:55:49.691Z,90.80
2019-04-05T23:58:21.460Z,95.20
